createdAt,value
2018-08-22T00:00:43.885Z,4.50
2018-08-22T00:05:46.416Z,4.60
2018-08-22T00:10:48.983Z,4.83
2018-08-22T00:15:51.491Z,4.27
2018-08-22T00:20:54.131Z,4.60
2018-08-22T00:25:56.637Z,5.00
2018-08-22T00:30:59.161Z,4.30
2018-08-22T00:36:01.688Z,5.10
2018-08-22T00:41:04.210Z,4.63
2018-08-22T00:46:06.737Z,5.03
2018-08-22T00:51:09.258Z,5.00
2018-08-22T00:56:11.799Z,5.00
2018-08-22T01:01:14.324Z,5.30
2018-08-22T01:06:16.838Z,5.33
2018-08-22T01:11:19.402Z,5.60
2018-08-22T01:16:21.906Z,6.37
2018-08-22T01:21:24.434Z,6.07
2018-08-22T01:26:26.990Z,5.90
2018-08-22T01:31:29.526Z,7.40
2018-08-22T01:36:32.055Z,7.43
2018-08-22T01:41:34.622Z,6.50
2018-08-22T01:46:37.147Z,6.90
2018-08-22T01:51:39.690Z,5.70
2018-08-22T01:56:42.234Z,5.30
2018-08-22T02:01:44.778Z,6.30
2018-08-22T02:06:47.325Z,6.27
2018-08-22T02:11:49.814Z,6.07
2018-08-22T02:16:52.334Z,5.83
2018-08-22T02:21:54.858Z,5.30
2018-08-22T02:26:58.059Z,5.50
2018-08-22T02:32:00.647Z,6.37
2018-08-22T02:37:03.167Z,6.00
2018-08-22T02:42:05.683Z,6.87
2018-08-22T02:47:08.219Z,6.77
2018-08-22T02:52:10.756Z,6.90
2018-08-22T02:57:13.349Z,6.07
2018-08-22T03:02:15.871Z,7.00
2018-08-22T03:07:18.384Z,6.17
2018-08-22T03:12:20.923Z,6.30
2018-08-22T03:17:23.479Z,6.83
2018-08-22T03:22:26.008Z,7.23
2018-08-22T03:27:28.534Z,7.00
2018-08-22T03:32:31.065Z,6.83
2018-08-22T03:37:33.687Z,7.50
2018-08-22T03:42:36.310Z,6.90
2018-08-22T03:47:38.826Z,6.73
2018-08-22T03:52:41.344Z,6.67
2018-08-22T03:57:43.879Z,6.63
2018-08-22T04:02:46.448Z,6.20
2018-08-22T04:07:48.976Z,6.23
2018-08-22T04:12:51.615Z,6.40
2018-08-22T04:17:54.155Z,6.20
2018-08-22T04:22:56.682Z,6.23
2018-08-22T04:27:59.215Z,7.10
2018-08-22T04:33:01.752Z,7.03
2018-08-22T04:38:04.371Z,6.50
2018-08-22T04:43:06.879Z,6.27
2018-08-22T04:48:09.419Z,6.70
2018-08-22T04:53:11.922Z,6.60
2018-08-22T04:58:14.422Z,6.90
2018-08-22T05:03:16.959Z,6.63
2018-08-22T05:08:19.482Z,6.57
2018-08-22T05:13:22.002Z,5.97
2018-08-22T05:18:24.558Z,6.70
2018-08-22T05:23:27.119Z,6.90
2018-08-22T05:28:29.659Z,7.43
2018-08-22T05:33:32.166Z,6.57
2018-08-22T05:38:34.702Z,6.40
2018-08-22T05:43:37.245Z,6.33
2018-08-22T05:48:39.813Z,7.43
2018-08-22T05:53:42.338Z,6.77
2018-08-22T05:58:44.896Z,6.70
2018-08-22T06:03:47.428Z,6.40
2018-08-22T06:08:49.955Z,6.33
2018-08-22T06:13:52.546Z,6.57
2018-08-22T06:18:55.125Z,6.33
2018-08-22T06:23:57.834Z,6.37
2018-08-22T06:29:00.374Z,7.67
2018-08-22T06:34:02.946Z,7.10
2018-08-22T06:39:07.756Z,7.27
2018-08-22T06:44:10.341Z,6.00
2018-08-22T06:49:12.820Z,6.53
2018-08-22T06:54:15.428Z,6.17
2018-08-22T06:59:17.952Z,6.80
2018-08-22T07:04:20.727Z,6.50
2018-08-22T07:09:23.824Z,6.30
2018-08-22T07:14:26.349Z,6.90
2018-08-22T07:19:28.902Z,6.10
2018-08-22T07:24:31.454Z,5.97
2018-08-22T07:29:33.977Z,5.97
2018-08-22T07:34:36.513Z,6.00
2018-08-22T07:39:39.112Z,5.47
2018-08-22T07:44:41.644Z,5.70
2018-08-22T07:49:44.218Z,5.90
2018-08-22T07:54:47.191Z,5.73
2018-08-22T07:59:50.431Z,5.53
2018-08-22T08:04:52.974Z,6.03
2018-08-22T08:09:55.484Z,5.50
2018-08-22T08:15:04.287Z,5.27
2018-08-22T08:20:06.813Z,5.83
2018-08-22T08:25:09.324Z,5.50
2018-08-22T08:30:11.828Z,5.50
2018-08-22T08:35:14.612Z,5.93
2018-08-22T08:40:18.020Z,5.43
2018-08-22T08:45:20.602Z,5.53
2018-08-22T08:50:23.172Z,5.10
2018-08-22T08:55:25.723Z,5.70
2018-08-22T09:00:28.234Z,5.10
2018-08-22T09:05:30.775Z,5.53
2018-08-22T09:10:33.338Z,4.93
2018-08-22T09:15:36.287Z,5.60
2018-08-22T09:20:39.355Z,5.20
2018-08-22T09:25:41.956Z,5.13
2018-08-22T09:30:44.511Z,5.63
2018-08-22T09:35:47.076Z,5.00
2018-08-22T09:40:49.652Z,5.43
2018-08-22T09:45:52.312Z,5.77
2018-08-22T09:50:55.512Z,5.03
2018-08-22T09:56:02.815Z,5.25
2018-08-22T10:01:13.737Z,5.83
2018-08-22T10:06:28.359Z,5.10
2018-08-22T10:11:37.835Z,5.58
2018-08-22T10:16:40.388Z,6.08
2018-08-22T10:21:42.964Z,6.03
2018-08-22T10:26:45.497Z,5.72
2018-08-22T10:31:48.393Z,6.15
2018-08-22T10:36:50.961Z,5.45
2018-08-22T10:41:53.575Z,6.05
2018-08-22T10:46:56.164Z,5.87
2018-08-22T10:51:58.695Z,5.78
2018-08-22T10:57:01.638Z,5.37
2018-08-22T11:02:04.448Z,6.20
2018-08-22T11:07:06.927Z,6.03
2018-08-22T11:12:10.104Z,5.60
2018-08-22T11:17:12.683Z,5.78
2018-08-22T11:22:26.591Z,5.83
2018-08-22T11:27:40.559Z,5.28
2018-08-22T11:32:54.476Z,5.17
2018-08-22T11:37:57.016Z,5.50
2018-08-22T11:42:59.590Z,5.50
2018-08-22T11:48:02.108Z,5.42
2018-08-22T11:53:05.102Z,5.30
2018-08-22T11:58:07.644Z,5.53
2018-08-22T12:03:10.306Z,5.58
2018-08-22T12:08:12.897Z,5.72
2018-08-22T12:13:15.524Z,5.58
2018-08-22T12:18:18.107Z,5.80
2018-08-22T12:23:20.764Z,5.55
2018-08-22T12:28:23.267Z,5.22
2018-08-22T12:33:25.925Z,5.90
2018-08-22T12:38:28.648Z,5.85
2018-08-22T12:43:31.251Z,5.47
2018-08-22T12:48:33.858Z,6.00
2018-08-22T12:53:36.441Z,5.72
2018-08-22T12:58:38.978Z,5.35
2018-08-22T13:03:41.529Z,5.85
2018-08-22T13:08:44.223Z,5.87
2018-08-22T13:13:46.789Z,5.97
2018-08-22T13:18:49.414Z,5.90
2018-08-22T13:23:51.934Z,6.25
2018-08-22T13:28:54.534Z,5.53
2018-08-22T13:33:57.304Z,5.67
2018-08-22T13:39:00.031Z,5.70
2018-08-22T13:44:02.598Z,6.45
2018-08-22T13:49:05.184Z,5.65
2018-08-22T13:54:07.808Z,5.65
2018-08-22T13:59:10.340Z,5.75
2018-08-22T14:04:12.908Z,5.60
2018-08-22T14:09:15.549Z,5.87
2018-08-22T14:14:18.250Z,5.12
2018-08-22T14:19:20.837Z,5.90
2018-08-22T14:24:23.382Z,5.80
2018-08-22T14:29:25.918Z,5.85
2018-08-22T14:34:28.475Z,5.50
2018-08-22T14:39:31.020Z,5.53
2018-08-22T14:44:33.691Z,5.67
2018-08-22T14:49:36.248Z,5.72
2018-08-22T14:54:38.898Z,5.37
2018-08-22T14:59:41.518Z,5.20
2018-08-22T15:04:44.100Z,5.60
2018-08-22T15:09:47.088Z,5.80
2018-08-22T15:14:49.651Z,6.05
2018-08-22T15:19:52.192Z,6.08
2018-08-22T15:24:54.971Z,6.30
2018-08-22T15:29:57.631Z,6.00
2018-08-22T15:35:00.125Z,6.17
2018-08-22T15:40:03.118Z,7.13
2018-08-22T15:45:06.406Z,6.30
2018-08-22T15:50:09.048Z,5.80
2018-08-22T15:55:14.467Z,6.07
2018-08-22T16:00:35.266Z,6.20
2018-08-22T16:05:38.995Z,6.30
2018-08-22T16:10:41.893Z,5.53
2018-08-22T16:15:45.523Z,5.60
2018-08-22T16:20:59.567Z,5.60
2018-08-22T16:26:03.284Z,5.27
2018-08-22T16:31:05.864Z,6.00
2018-08-22T16:36:13.933Z,4.83
2018-08-22T16:41:16.825Z,4.83
2018-08-22T16:46:19.367Z,4.77
2018-08-22T16:51:22.395Z,4.63
2018-08-22T16:56:24.990Z,4.70
2018-08-22T17:01:27.647Z,4.93
2018-08-22T17:06:30.204Z,4.87
2018-08-22T17:11:32.763Z,6.00
2018-08-22T17:16:35.334Z,5.40
2018-08-22T17:21:37.875Z,5.43
2018-08-22T17:26:40.512Z,5.00
2018-08-22T17:31:44.354Z,5.33
2018-08-22T17:36:57.110Z,5.30
2018-08-22T17:41:59.667Z,5.53
2018-08-22T17:47:02.285Z,5.40
2018-08-22T17:52:07.108Z,5.23
2018-08-22T17:57:23.901Z,5.70
2018-08-22T18:02:26.449Z,5.37
2018-08-22T18:07:29.044Z,5.00
2018-08-22T18:12:31.602Z,5.43
2018-08-22T18:17:34.209Z,5.50
2018-08-22T18:22:37.919Z,5.40
2018-08-22T18:27:40.548Z,5.67
2018-08-22T18:32:44.416Z,5.73
2018-08-22T18:37:47.000Z,5.83
2018-08-22T18:42:54.618Z,6.07
2018-08-22T18:47:57.719Z,5.70
2018-08-22T18:53:01.559Z,5.50
2018-08-22T18:58:04.972Z,5.57
2018-08-22T19:03:07.579Z,5.20
2018-08-22T19:08:13.612Z,5.50
2018-08-22T19:13:17.466Z,5.60
2018-08-22T19:18:20.112Z,5.47
2018-08-22T19:23:22.872Z,5.17
2018-08-22T19:28:25.426Z,5.47
2018-08-22T19:33:28.108Z,5.43
2018-08-22T19:38:30.657Z,5.23
2018-08-22T19:43:33.297Z,5.37
2018-08-22T19:48:35.820Z,5.73
2018-08-22T19:53:48.459Z,5.43
2018-08-22T19:58:51.006Z,6.00
2018-08-22T20:03:55.395Z,5.43
2018-08-22T20:08:58.999Z,5.70
2018-08-22T20:14:02.918Z,5.53
2018-08-22T20:19:05.495Z,5.67
2018-08-22T20:24:10.600Z,6.43
2018-08-22T20:29:13.035Z,5.83
2018-08-22T20:34:15.869Z,5.53
2018-08-22T20:39:18.443Z,5.30
2018-08-22T20:44:21.478Z,5.90
2018-08-22T20:49:24.057Z,6.00
2018-08-22T20:54:27.277Z,5.97
2018-08-22T20:59:29.844Z,6.20
2018-08-22T21:04:33.160Z,5.90
2018-08-22T21:09:35.702Z,5.87
2018-08-22T21:14:38.271Z,5.73
2018-08-22T21:19:40.822Z,5.97
2018-08-22T21:24:43.455Z,5.87
2018-08-22T21:29:45.875Z,5.80
2018-08-22T21:34:48.429Z,5.30
2018-08-22T21:39:50.987Z,5.73
2018-08-22T21:44:53.560Z,4.70
2018-08-22T21:49:56.133Z,5.20
2018-08-22T21:54:58.707Z,5.73
2018-08-22T22:00:08.363Z,5.30
2018-08-22T22:05:11.861Z,5.03
2018-08-22T22:10:14.305Z,5.57
2018-08-22T22:15:22.410Z,5.43
2018-08-22T22:20:25.031Z,5.13
2018-08-22T22:25:27.423Z,5.33
2018-08-22T22:30:29.937Z,5.43
2018-08-22T22:35:37.287Z,4.90
2018-08-22T22:40:40.060Z,6.27
2018-08-22T22:45:42.591Z,5.67
2018-08-22T22:50:45.148Z,6.33
2018-08-22T22:55:47.713Z,6.03
2018-08-22T23:00:50.252Z,5.60
2018-08-22T23:05:52.800Z,5.20
2018-08-22T23:10:55.398Z,5.87
2018-08-22T23:15:57.959Z,5.70
2018-08-22T23:21:00.462Z,5.47
2018-08-22T23:26:11.402Z,5.20
2018-08-22T23:31:17.378Z,5.20
2018-08-22T23:36:19.920Z,5.70
2018-08-22T23:41:22.434Z,5.47
2018-08-22T23:46:24.984Z,5.77
2018-08-22T23:51:27.528Z,4.77
2018-08-22T23:56:30.970Z,5.23
